Time;durP1;ratioP1;P1;durP2;ratioP2;P2;SDS_P1;SDS_P2;PMS_P1;PMS_P2;Temp;Humidity;BMP_temperature;BMP_pressure;BME280_temperature;BME280_humidity;BME280_pressure;Samples;Min_cycle;Max_cycle;Signal;HPM_P1;HPM_P2
2021/10/28 00:13:51;;;;;;;9.02;4.25;;;;;;;;;;5037149;28;20060;-90
2021/10/28 00:16:50;;;;;;;10.20;4.25;;;;;;;;;;5035495;28;20531;-90
2021/10/28 00:19:08;;;;;;;10.68;4.20;;;;;;;;;;5035863;28;20025;-90
2021/10/28 00:21:35;;;;;;;10.38;4.38;;;;;;;;;;5034706;28;20041;-90
2021/10/28 00:24:03;;;;;;;13.40;5.63;;;;;;;;;;5067115;28;20024;-90
2021/10/28 00:26:29;;;;;;;8.82;4.10;;;;;;;;;;5068432;28;20029;-90
2021/10/28 00:28:58;;;;;;;14.18;4.20;;;;;;;;;;5034882;28;20424;-90
2021/10/28 00:31:28;;;;;;;14.30;4.20;;;;;;;;;;5068359;28;20049;-90
2021/10/28 00:33:54;;;;;;;9.25;4.05;;;;;;;;;;5035190;28;20519;-89
2021/10/28 00:36:19;;;;;;;9.30;3.75;;;;;;;;;;5034924;28;20116;-90
2021/10/28 00:38:44;;;;;;;8.70;4.40;;;;;;;;;;5034958;28;20105;-90
2021/10/28 00:41:10;;;;;;;9.68;4.43;;;;;;;;;;5035247;28;20113;-90
2021/10/28 00:43:42;;;;;;;12.23;4.53;;;;;;;;;;5034769;28;20037;-90
2021/10/28 00:46:08;;;;;;;9.25;3.88;;;;;;;;;;5034954;28;20029;-90
2021/10/28 00:48:34;;;;;;;7.63;3.92;;;;;;;;;;5034500;28;20032;-90
2021/10/28 00:50:59;;;;;;;8.60;4.10;;;;;;;;;;5034629;28;20499;-90
2021/10/28 00:53:24;;;;;;;16.48;4.40;;;;;;;;;;5033684;28;20036;-90
2021/10/28 00:55:51;;;;;;;12.30;3.88;;;;;;;;;;5035820;28;20021;-90
2021/10/28 00:58:20;;;;;;;6.43;3.90;;;;;;;;;;5035979;28;20026;-90
2021/10/28 01:00:45;;;;;;;8.43;3.53;;;;;;;;;;5034478;28;20028;-90
2021/10/28 01:03:10;;;;;;;9.88;4.43;;;;;;;;;;5034835;28;20017;-90
2021/10/28 01:05:36;;;;;;;12.45;3.55;;;;;;;;;;5034840;28;20021;-90
2021/10/28 01:08:01;;;;;;;11.45;4.10;;;;;;;;;;5034240;28;20037;-90
2021/10/28 01:10:26;;;;;;;7.88;4.00;;;;;;;;;;5034629;28;20041;-90
2021/10/28 01:12:51;;;;;;;10.07;3.78;;;;;;;;;;5034118;28;20029;-90
2021/10/28 01:15:17;;;;;;;5.18;3.08;;;;;;;;;;5034420;28;20020;-90
2021/10/28 01:17:43;;;;;;;14.60;3.60;;;;;;;;;;5034036;28;20112;-91
2021/10/28 01:20:09;;;;;;;9.52;4.00;;;;;;;;;;5020597;28;20128;-90
2021/10/28 01:22:34;;;;;;;5.03;3.33;;;;;;;;;;5033299;28;20033;-90
2021/10/28 01:24:59;;;;;;;9.10;4.00;;;;;;;;;;5030273;28;20481;-90
2021/10/28 01:27:25;;;;;;;8.38;3.50;;;;;;;;;;5025693;28;20017;-90
2021/10/28 01:29:50;;;;;;;6.25;3.58;;;;;;;;;;5033381;28;20013;-90
2021/10/28 01:32:16;;;;;;;6.38;3.00;;;;;;;;;;5065773;28;20028;-90
2021/10/28 01:34:45;;;;;;;6.10;2.85;;;;;;;;;;5032389;28;20022;-90
2021/10/28 01:37:12;;;;;;;6.07;2.90;;;;;;;;;;5032473;28;20025;-90
2021/10/28 01:39:37;;;;;;;6.20;3.00;;;;;;;;;;5032671;28;20018;-89
2021/10/28 01:42:05;;;;;;;7.00;3.40;;;;;;;;;;5032306;28;20447;-90
2021/10/28 01:44:33;;;;;;;7.90;3.33;;;;;;;;;;5065218;28;20025;-90
2021/10/28 01:46:58;;;;;;;5.45;2.78;;;;;;;;;;5031936;28;20112;-90
2021/10/28 01:49:27;;;;;;;9.65;3.33;;;;;;;;;;5032353;28;20108;-90
2021/10/28 01:51:54;;;;;;;12.20;3.63;;;;;;;;;;5053815;28;20017;-90
2021/10/28 01:54:19;;;;;;;8.00;3.30;;;;;;;;;;5067239;28;20120;-89
2021/10/28 01:56:45;;;;;;;6.78;2.95;;;;;;;;;;5066848;28;20053;-90
2021/10/28 01:59:10;;;;;;;5.78;3.42;;;;;;;;;;5033403;28;20021;-90
2021/10/28 02:01:36;;;;;;;7.35;3.20;;;;;;;;;;5033399;28;20032;-89
2021/10/28 02:04:02;;;;;;;7.75;3.22;;;;;;;;;;5034331;28;20025;-90
2021/10/28 02:06:28;;;;;;;11.15;3.83;;;;;;;;;;5033161;28;20025;-90
2021/10/28 02:08:54;;;;;;;7.70;3.25;;;;;;;;;;5033453;28;20045;-90
2021/10/28 02:11:20;;;;;;;7.43;3.58;;;;;;;;;;5054617;28;20474;-90
2021/10/28 02:13:45;;;;;;;12.73;3.63;;;;;;;;;;5031439;28;20020;-90
2021/10/28 02:16:10;;;;;;;6.30;3.03;;;;;;;;;;5034492;28;20018;-90
2021/10/28 02:18:35;;;;;;;11.98;3.17;;;;;;;;;;5064531;28;20021;-90
2021/10/28 02:21:00;;;;;;;8.73;3.72;;;;;;;;;;5032775;28;20033;-90
2021/10/28 02:23:25;;;;;;;7.75;3.60;;;;;;;;;;5066420;28;20017;-90
2021/10/28 02:25:51;;;;;;;9.85;3.72;;;;;;;;;;5066346;28;20025;-90
2021/10/28 02:28:16;;;;;;;7.10;3.28;;;;;;;;;;5066194;28;20032;-90
2021/10/28 02:30:41;;;;;;;7.40;3.13;;;;;;;;;;5032688;28;20014;-90
2021/10/28 02:33:06;;;;;;;9.15;3.38;;;;;;;;;;5032801;28;20040;-90
2021/10/28 02:35:31;;;;;;;8.60;3.05;;;;;;;;;;5034493;28;20120;-90
2021/10/28 02:37:57;;;;;;;5.35;2.58;;;;;;;;;;5032837;28;20391;-90
2021/10/28 02:40:22;;;;;;;5.53;2.88;;;;;;;;;;5032939;28;20499;-90
2021/10/28 02:42:47;;;;;;;6.68;3.00;;;;;;;;;;5032910;28;20018;-90
2021/10/28 02:45:13;;;;;;;6.78;2.67;;;;;;;;;;5032856;28;20021;-90
2021/10/28 02:47:39;;;;;;;6.97;3.50;;;;;;;;;;5032496;28;20033;-90
2021/10/28 02:50:04;;;;;;;8.65;3.85;;;;;;;;;;5032905;28;20013;-90
2021/10/28 02:52:30;;;;;;;8.30;3.67;;;;;;;;;;5032841;28;20477;-90
2021/10/28 02:54:55;;;;;;;10.80;3.65;;;;;;;;;;5033666;28;20021;-90
2021/10/28 02:57:20;;;;;;;6.90;3.30;;;;;;;;;;5032727;28;20033;-90
2021/10/28 02:59:45;;;;;;;6.25;3.40;;;;;;;;;;5032333;28;20018;-90
2021/10/28 03:02:11;;;;;;;9.00;3.80;;;;;;;;;;5033666;28;20079;-90
2021/10/28 03:04:37;;;;;;;8.57;3.13;;;;;;;;;;5032586;28;20060;-90
2021/10/28 03:07:02;;;;;;;12.13;3.63;;;;;;;;;;5065606;28;20354;-90
2021/10/28 03:09:28;;;;;;;8.85;4.00;;;;;;;;;;5032396;28;20025;-90
2021/10/28 03:11:57;;;;;;;6.93;3.53;;;;;;;;;;5032609;28;20013;-90
2021/10/28 03:14:36;;;;;;;7.43;3.33;;;;;;;;;;5031903;28;20552;-90
2021/10/28 03:27:39;;;;;;;13.93;4.25;;;;;;;;;;5033599;28;20108;-90
2021/10/28 03:30:05;;;;;;;7.80;4.10;;;;;;;;;;5032061;28;20018;-90
2021/10/28 03:32:31;;;;;;;11.85;3.72;;;;;;;;;;5065517;28;20018;-90
2021/10/28 03:34:56;;;;;;;9.20;4.28;;;;;;;;;;5028856;28;20385;-90
2021/10/28 03:37:35;;;;;;;13.95;5.03;;;;;;;;;;5027337;28;20475;-90
2021/10/28 04:04:04;;;;;;;11.13;5.20;;;;;;;;;;5033334;28;20104;-90
2021/10/28 04:30:18;;;;;;;11.63;4.72;;;;;;;;;;5036591;28;20108;-89
2021/10/28 04:32:43;;;;;;;15.75;5.85;;;;;;;;;;5035509;28;20071;-90
2021/10/28 04:35:09;;;;;;;14.43;5.63;;;;;;;;;;5031589;28;20112;-90
2021/10/28 04:37:34;;;;;;;16.05;6.50;;;;;;;;;;5068347;28;20465;-90
2021/10/28 04:39:59;;;;;;;13.88;5.65;;;;;;;;;;5035402;28;20021;-90
2021/10/28 04:42:24;;;;;;;18.80;6.10;;;;;;;;;;5068434;28;20022;-90
2021/10/28 04:44:50;;;;;;;10.95;5.68;;;;;;;;;;5035134;28;20017;-90
2021/10/28 04:47:16;;;;;;;12.32;5.63;;;;;;;;;;5034938;28;20117;-90
2021/10/28 04:49:41;;;;;;;11.45;5.47;;;;;;;;;;5068053;28;20377;-89
2021/10/28 04:52:07;;;;;;;13.88;5.38;;;;;;;;;;5036378;28;20025;-90
2021/10/28 04:54:32;;;;;;;11.50;5.45;;;;;;;;;;5034830;28;20495;-90
2021/10/28 04:56:57;;;;;;;10.50;5.30;;;;;;;;;;5034341;28;20037;-90
2021/10/28 04:59:22;;;;;;;13.20;6.25;;;;;;;;;;5020726;28;20053;-90
2021/10/28 05:01:48;;;;;;;12.50;5.05;;;;;;;;;;5034660;28;20028;-90
2021/10/28 05:04:13;;;;;;;11.82;5.80;;;;;;;;;;5036018;28;20018;-90
2021/10/28 05:06:38;;;;;;;12.52;6.10;;;;;;;;;;5035688;28;20385;-91
2021/10/28 05:09:04;;;;;;;14.20;5.60;;;;;;;;;;5034568;28;20040;-90
2021/10/28 05:11:30;;;;;;;16.15;5.60;;;;;;;;;;5035684;28;20474;-90
2021/10/28 05:13:55;;;;;;;11.35;5.43;;;;;;;;;;5068020;28;20022;-90
2021/10/28 05:16:20;;;;;;;14.98;6.28;;;;;;;;;;5067869;28;20021;-90
2021/10/28 05:18:46;;;;;;;12.25;5.57;;;;;;;;;;5034479;28;20023;-90
2021/10/28 05:21:12;;;;;;;14.05;6.38;;;;;;;;;;5035509;28;20064;-90
2021/10/28 05:23:38;;;;;;;13.20;6.30;;;;;;;;;;5034622;28;20055;-90
2021/10/28 05:26:04;;;;;;;14.57;6.45;;;;;;;;;;5034555;28;20026;-90
2021/10/28 05:28:29;;;;;;;21.33;6.57;;;;;;;;;;5034011;28;20031;-89
2021/10/28 05:30:55;;;;;;;15.63;6.57;;;;;;;;;;5033329;28;20021;-90
2021/10/28 05:33:20;;;;;;;19.80;7.03;;;;;;;;;;5032612;28;20067;-89
2021/10/28 05:35:45;;;;;;;12.05;6.03;;;;;;;;;;5032624;28;20108;-90
2021/10/28 05:38:11;;;;;;;11.57;6.45;;;;;;;;;;5031749;28;20133;-90
2021/10/28 05:40:36;;;;;;;15.10;7.40;;;;;;;;;;5032643;28;20417;-90
2021/10/28 05:43:02;;;;;;;15.00;6.57;;;;;;;;;;5018517;28;20262;-90
2021/10/28 05:45:28;;;;;;;14.38;6.32;;;;;;;;;;5033703;28;20048;-90
2021/10/28 05:47:53;;;;;;;18.90;6.18;;;;;;;;;;5032071;28;20017;-90
2021/10/28 05:50:23;;;;;;;13.02;6.38;;;;;;;;;;5033835;28;20027;-90
2021/10/28 05:52:51;;;;;;;14.55;6.47;;;;;;;;;;5032093;28;20335;-91
2021/10/28 05:55:16;;;;;;;17.35;6.78;;;;;;;;;;5031738;28;20025;-90
2021/10/28 05:57:41;;;;;;;17.42;6.55;;;;;;;;;;5033523;28;20021;-90
2021/10/28 06:00:08;;;;;;;16.73;7.00;;;;;;;;;;5062155;28;20053;-91
2021/10/28 06:02:33;;;;;;;17.20;6.75;;;;;;;;;;5028736;28;20033;-91
2021/10/28 06:04:59;;;;;;;14.00;6.38;;;;;;;;;;5066757;28;20067;-91
2021/10/28 06:07:24;;;;;;;17.35;6.85;;;;;;;;;;5066339;28;20358;-91
2021/10/28 06:09:49;;;;;;;12.85;5.97;;;;;;;;;;5033550;28;20488;-90
2021/10/28 06:12:15;;;;;;;11.95;5.50;;;;;;;;;;5033212;28;20022;-90
2021/10/28 06:14:40;;;;;;;12.18;6.18;;;;;;;;;;5033352;28;20025;-90
2021/10/28 06:17:13;;;;;;;13.13;5.75;;;;;;;;;;5033545;28;20084;-90
2021/10/28 06:19:38;;;;;;;;;;;;;;;;;;5067210;28;20056;-89
2021/10/28 06:22:03;;;;;;;18.48;6.03;;;;;;;;;;5066648;28;19909;-90
2021/10/28 06:24:29;;;;;;;13.73;6.80;;;;;;;;;;5032872;28;20761;-89
2021/10/28 06:26:54;;;;;;;17.20;6.28;;;;;;;;;;5031213;28;20064;-90
2021/10/28 06:29:19;;;;;;;16.45;6.22;;;;;;;;;;5031263;28;20013;-90
2021/10/28 06:31:47;;;;;;;11.05;5.72;;;;;;;;;;5058754;28;20017;-90
2021/10/28 06:34:18;;;;;;;13.48;5.95;;;;;;;;;;5034071;28;20017;-90
2021/10/28 06:36:44;;;;;;;15.13;6.53;;;;;;;;;;5027486;28;20031;-90
2021/10/28 06:39:09;;;;;;;11.10;5.55;;;;;;;;;;5033799;28;20048;-90
2021/10/28 06:41:35;;;;;;;13.77;6.17;;;;;;;;;;5041223;28;20518;-90
2021/10/28 06:44:00;;;;;;;14.38;6.18;;;;;;;;;;5032620;28;20014;-90
2021/10/28 06:46:26;;;;;;;14.57;6.97;;;;;;;;;;5018927;28;20029;-90
2021/10/28 06:48:52;;;;;;;16.92;6.20;;;;;;;;;;5032480;28;20033;-90
2021/10/28 06:51:18;;;;;;;15.90;6.97;;;;;;;;;;5032040;28;20377;-90
2021/10/28 06:54:07;;;;;;;23.23;7.70;;;;;;;;;;5066101;28;20508;-89
2021/10/28 07:04:31;;;;;;;21.80;8.00;;;;;;;;;;5025127;28;20109;-89
2021/10/28 07:06:57;;;;;;;16.80;7.68;;;;;;;;;;5035958;28;20518;-89
2021/10/28 07:09:30;;;;;;;20.43;8.30;;;;;;;;;;5032278;28;20021;-89
2021/10/28 07:14:30;;;;;;;19.63;7.78;;;;;;;;;;5033316;28;20539;-89
2021/10/28 07:19:47;;;;;;;20.30;8.45;;;;;;;;;;5034003;28;20036;-89
2021/10/28 07:32:51;;;;;;;19.23;8.20;;;;;;;;;;5042770;28;20110;-88
2021/10/28 07:35:34;;;;;;;17.08;7.93;;;;;;;;;;5048903;28;20480;-89
2021/10/28 08:21:05;;;;;;;14.18;6.22;;;;;;;;;;5037021;28;20037;-91
2021/10/28 08:24:12;;;;;;;8.02;3.47;;;;;;;;;;5068812;28;20045;-90
2021/10/28 08:29:20;;;;;;;14.48;6.13;;;;;;;;;;5036711;28;20088;-90
2021/10/28 08:31:45;;;;;;;12.93;5.20;;;;;;;;;;5038280;28;20052;-90
2021/10/28 08:34:11;;;;;;;16.08;4.97;;;;;;;;;;5034880;28;20057;-90
2021/10/28 08:36:40;;;;;;;6.85;3.05;;;;;;;;;;5036440;28;20029;-90
2021/10/28 08:39:07;;;;;;;11.20;5.38;;;;;;;;;;5031770;28;20458;-90
2021/10/28 08:41:33;;;;;;;14.02;5.45;;;;;;;;;;5035168;28;20483;-90
2021/10/28 08:44:00;;;;;;;13.05;5.55;;;;;;;;;;5074724;28;20017;-90
2021/10/28 08:46:26;;;;;;;13.13;5.43;;;;;;;;;;5065641;28;20056;-90
2021/10/28 08:48:57;;;;;;;13.02;5.00;;;;;;;;;;5034921;28;20555;-90
2021/10/28 08:51:38;;;;;;;8.43;3.00;;;;;;;;;;5068151;28;20022;-90
2021/10/28 09:24:16;;;;;;;18.15;6.20;;;;;;;;;;5036405;28;20416;-89
2021/10/28 09:26:53;;;;;;;10.32;2.92;;;;;;;;;;5033984;28;20532;-89
2021/10/28 09:32:27;;;;;;;5.38;1.98;;;;;;;;;;5035218;28;20021;-90
2021/10/28 09:48:30;;;;;;;16.88;5.47;;;;;;;;;;5035239;28;20030;-90
2021/10/28 09:50:56;;;;;;;11.85;5.47;;;;;;;;;;5067319;28;20057;-90
2021/10/28 09:58:28;;;;;;;12.13;5.43;;;;;;;;;;5035258;28;20029;-90
2021/10/28 10:00:54;;;;;;;12.73;4.60;;;;;;;;;;5038963;28;20358;-90
2021/10/28 10:03:24;;;;;;;4.75;1.50;;;;;;;;;;5034139;28;20124;-89
2021/10/28 10:06:01;;;;;;;15.80;6.97;;;;;;;;;;5033455;28;20072;-91
2021/10/28 10:08:27;;;;;;;2.67;1.35;;;;;;;;;;5034520;28;20105;-90
2021/10/28 10:10:53;;;;;;;12.05;5.85;;;;;;;;;;5033405;28;20059;-91
2021/10/28 10:13:23;;;;;;;16.83;6.45;;;;;;;;;;5033345;28;20025;-91
2021/10/28 10:15:49;;;;;;;17.77;4.32;;;;;;;;;;5056888;28;20108;-91
2021/10/28 10:18:15;;;;;;;10.98;3.63;;;;;;;;;;5029433;28;20029;-91
2021/10/28 10:20:50;;;;;;;13.63;6.18;;;;;;;;;;5034280;28;20116;-90
2021/10/28 10:23:34;;;;;;;14.07;5.18;;;;;;;;;;5034453;28;20025;-91
2021/10/28 11:03:56;;;;;;;5.18;2.65;;;;;;;;;;5033674;28;20111;-91
2021/10/28 12:43:37;;;;;;;1.85;0.80;;;;;;;;;;5039493;28;20040;-91
2021/10/28 12:46:22;;;;;;;3.40;1.77;;;;;;;;;;5038002;28;20030;-91
2021/10/28 12:51:45;;;;;;;3.25;1.73;;;;;;;;;;5036343;28;20029;-91
2021/10/28 13:52:16;;;;;;;1.50;0.90;;;;;;;;;;5026346;28;20041;-90
2021/10/28 14:19:26;;;;;;;3.58;1.80;;;;;;;;;;5034996;28;20021;-90
2021/10/28 14:22:04;;;;;;;6.57;1.55;;;;;;;;;;5034132;28;20114;-90
2021/10/28 15:02:28;;;;;;;4.10;1.65;;;;;;;;;;5023185;28;20052;-91
2021/10/28 15:30:17;;;;;;;5.80;1.95;;;;;;;;;;5032160;28;20100;-90
2021/10/28 15:35:21;;;;;;;4.22;1.95;;;;;;;;;;5033015;28;20056;-90
2021/10/28 15:48:54;;;;;;;5.30;2.50;;;;;;;;;;5032372;28;20131;-90
2021/10/28 16:23:09;;;;;;;6.45;2.45;;;;;;;;;;5033513;28;20032;-90
2021/10/28 16:25:35;;;;;;;8.25;2.40;;;;;;;;;;5033180;28;20017;-90
2021/10/28 16:28:00;;;;;;;5.85;2.47;;;;;;;;;;5033412;28;20029;-90
2021/10/28 16:30:25;;;;;;;6.07;2.42;;;;;;;;;;5033643;28;20010;-90
2021/10/28 16:32:53;;;;;;;6.03;2.58;;;;;;;;;;5033948;28;20487;-90
2021/10/28 16:35:18;;;;;;;3.63;2.30;;;;;;;;;;5033795;28;20669;-90
2021/10/28 16:37:43;;;;;;;4.32;2.17;;;;;;;;;;5066764;28;20022;-90
2021/10/28 16:40:09;;;;;;;5.80;2.50;;;;;;;;;;5033391;28;20492;-90
2021/10/28 16:42:34;;;;;;;7.63;2.70;;;;;;;;;;5033424;28;20026;-90
2021/10/28 16:45:00;;;;;;;2.90;1.83;;;;;;;;;;5034833;28;20374;-94
2021/10/28 16:47:27;;;;;;;4.18;2.28;;;;;;;;;;5068697;28;20033;-94
2021/10/28 16:49:52;;;;;;;5.57;1.98;;;;;;;;;;5035913;28;20017;-95
2021/10/28 16:52:18;;;;;;;4.63;2.20;;;;;;;;;;5069169;28;20507;-94
2021/10/28 16:54:44;;;;;;;6.97;2.25;;;;;;;;;;5035722;28;20084;-93
2021/10/28 16:57:09;;;;;;;4.20;2.08;;;;;;;;;;5035767;28;20016;-94
2021/10/28 16:59:34;;;;;;;7.35;2.90;;;;;;;;;;5035709;28;20387;-94
2021/10/28 17:01:59;;;;;;;5.50;2.70;;;;;;;;;;5035643;28;20024;-94
2021/10/28 17:04:25;;;;;;;6.13;2.10;;;;;;;;;;5069029;28;20021;-94
2021/10/28 17:06:52;;;;;;;4.25;1.95;;;;;;;;;;5038160;28;20014;-93
2021/10/28 17:09:18;;;;;;;3.55;1.92;;;;;;;;;;5035330;28;20025;-93
2021/10/28 17:11:43;;;;;;;6.75;2.83;;;;;;;;;;5035249;28;20020;-94
2021/10/28 17:14:08;;;;;;;4.72;2.60;;;;;;;;;;5035604;28;20451;-94
2021/10/28 17:16:35;;;;;;;5.90;2.38;;;;;;;;;;5059934;28;20068;-94
2021/10/28 17:19:00;;;;;;;4.30;2.30;;;;;;;;;;5068647;28;20053;-93
2021/10/28 17:21:26;;;;;;;11.40;2.63;;;;;;;;;;5035302;28;20472;-93
2021/10/28 17:24:00;;;;;;;7.82;2.78;;;;;;;;;;5035249;28;20025;-94
2021/10/28 17:26:26;;;;;;;8.73;2.60;;;;;;;;;;5068728;28;20568;-93
2021/10/28 17:28:51;;;;;;;6.55;2.90;;;;;;;;;;5035537;28;20037;-94
2021/10/28 17:31:16;;;;;;;4.85;2.60;;;;;;;;;;5043815;28;20032;-94
2021/10/28 17:33:42;;;;;;;4.28;2.17;;;;;;;;;;5033496;28;20049;-94
2021/10/28 17:36:07;;;;;;;5.18;2.55;;;;;;;;;;5068660;28;20461;-93
2021/10/28 17:38:32;;;;;;;5.32;2.90;;;;;;;;;;5034987;28;20029;-94
2021/10/28 17:40:58;;;;;;;8.18;3.63;;;;;;;;;;5063306;28;20022;-94
2021/10/28 17:43:25;;;;;;;5.10;2.53;;;;;;;;;;5068259;28;20044;-93
2021/10/28 17:45:55;;;;;;;6.70;2.85;;;;;;;;;;5061850;28;20026;-94
2021/10/28 17:48:21;;;;;;;4.85;2.67;;;;;;;;;;5034692;28;20033;-94
2021/10/28 17:50:46;;;;;;;6.88;2.40;;;;;;;;;;5034694;28;20072;-94
2021/10/28 17:53:11;;;;;;;6.78;2.88;;;;;;;;;;5055220;28;20072;-93
2021/10/28 17:55:37;;;;;;;5.78;2.70;;;;;;;;;;5018421;28;20025;-94
2021/10/28 17:58:02;;;;;;;8.80;2.70;;;;;;;;;;5028843;28;20488;-94
2021/10/28 18:00:27;;;;;;;7.35;3.25;;;;;;;;;;5024163;28;20067;-93
2021/10/28 18:02:54;;;;;;;4.63;2.72;;;;;;;;;;5044529;28;20021;-93
2021/10/28 18:05:19;;;;;;;4.80;2.80;;;;;;;;;;5034487;28;20025;-93
2021/10/28 18:07:45;;;;;;;5.63;2.42;;;;;;;;;;5030468;28;20461;-94
2021/10/28 18:10:10;;;;;;;6.70;2.55;;;;;;;;;;5036519;28;20484;-94
2021/10/28 18:12:35;;;;;;;5.35;2.83;;;;;;;;;;5048906;28;20020;-94
2021/10/28 18:15:05;;;;;;;6.63;3.10;;;;;;;;;;5036750;28;20013;-94
2021/10/28 18:17:32;;;;;;;5.68;2.47;;;;;;;;;;5024695;28;20029;-94
2021/10/28 18:19:57;;;;;;;14.15;3.47;;;;;;;;;;5034010;28;20026;-93
2021/10/28 18:22:22;;;;;;;5.97;3.05;;;;;;;;;;5067448;28;20491;-94
2021/10/28 18:24:48;;;;;;;5.38;2.45;;;;;;;;;;5034185;28;20025;-93
2021/10/28 18:27:13;;;;;;;6.57;3.25;;;;;;;;;;5050364;28;20033;-94
2021/10/28 18:29:38;;;;;;;6.78;2.97;;;;;;;;;;5067319;28;20013;-94
2021/10/28 18:32:06;;;;;;;7.35;3.33;;;;;;;;;;5033938;28;20017;-94
2021/10/28 18:34:32;;;;;;;7.03;3.30;;;;;;;;;;5032764;28;20397;-93
2021/10/28 18:36:57;;;;;;;6.32;3.10;;;;;;;;;;5067131;28;20029;-93
2021/10/28 18:39:22;;;;;;;9.90;3.30;;;;;;;;;;5065755;28;20404;-93
2021/10/28 18:41:48;;;;;;;6.07;2.60;;;;;;;;;;5023893;28;20484;-93
2021/10/28 18:44:14;;;;;;;10.00;3.20;;;;;;;;;;5033611;28;20111;-92
2021/10/28 18:46:39;;;;;;;4.97;2.75;;;;;;;;;;5030706;28;20014;-93
2021/10/28 18:49:06;;;;;;;5.80;3.25;;;;;;;;;;5032425;28;20026;-93
2021/10/28 18:51:31;;;;;;;7.95;2.80;;;;;;;;;;5033574;28;20048;-94
2021/10/28 18:53:57;;;;;;;5.63;3.05;;;;;;;;;;5025980;28;20030;-93
2021/10/28 18:56:22;;;;;;;5.80;2.90;;;;;;;;;;5031805;28;20134;-93
2021/10/28 18:58:48;;;;;;;5.78;2.85;;;;;;;;;;5066815;28;20026;-92
2021/10/28 19:01:15;;;;;;;9.07;3.38;;;;;;;;;;5066631;28;20049;-92
2021/10/28 19:03:41;;;;;;;7.40;3.60;;;;;;;;;;5066536;28;20056;-92
2021/10/28 19:06:07;;;;;;;20.73;4.40;;;;;;;;;;5037190;28;20423;-92
2021/10/28 19:08:35;;;;;;;8.80;3.15;;;;;;;;;;5019562;28;20018;-94
2021/10/28 19:11:01;;;;;;;7.80;3.22;;;;;;;;;;5033278;28;20021;-93
2021/10/28 19:13:26;;;;;;;13.85;3.80;;;;;;;;;;5033168;28;20025;-94
2021/10/28 19:15:52;;;;;;;8.63;3.50;;;;;;;;;;5063381;28;20028;-92
2021/10/28 19:18:17;;;;;;;13.68;3.92;;;;;;;;;;5030976;28;20334;-92
2021/10/28 19:20:42;;;;;;;10.32;3.35;;;;;;;;;;5033127;28;20031;-93
2021/10/28 19:23:08;;;;;;;7.72;3.67;;;;;;;;;;5039677;28;20442;-93
2021/10/28 19:25:34;;;;;;;11.13;3.95;;;;;;;;;;5034212;28;20469;-93
2021/10/28 19:28:00;;;;;;;10.77;4.03;;;;;;;;;;5059651;28;20364;-93
2021/10/28 19:31:28;;;;;;;7.40;3.47;;;;;;;;;;5032981;28;20097;-93
2021/10/28 19:33:25;;;;;;;7.38;3.67;;;;;;;;;;5015356;28;20026;-93
2021/10/28 19:35:58;;;;;;;9.45;4.13;;;;;;;;;;5034080;28;20032;-92
2021/10/28 19:41:09;;;;;;;10.90;4.70;;;;;;;;;;5034288;28;20032;-92
2021/10/28 19:46:19;;;;;;;9.00;4.53;;;;;;;;;;5041553;28;20031;-92
2021/10/28 19:48:46;;;;;;;8.60;5.07;;;;;;;;;;5037369;28;20491;-92
2021/10/28 19:51:11;;;;;;;12.02;5.70;;;;;;;;;;5032943;28;20484;-92
2021/10/28 19:53:37;;;;;;;11.68;4.57;;;;;;;;;;5065239;28;20021;-92
2021/10/28 19:56:11;;;;;;;10.48;4.88;;;;;;;;;;5031149;28;20450;-91
2021/10/28 19:58:40;;;;;;;7.95;4.55;;;;;;;;;;5063001;28;20044;-92
2021/10/28 20:01:19;;;;;;;12.90;6.15;;;;;;;;;;5042027;28;20022;-92
2021/10/28 20:22:20;;;;;;;10.85;5.65;;;;;;;;;;5025566;28;20037;-92
2021/10/28 20:24:46;;;;;;;9.85;5.07;;;;;;;;;;5036387;28;20432;-93
2021/10/28 20:27:11;;;;;;;12.10;5.40;;;;;;;;;;5036218;28;20085;-92
2021/10/28 20:29:36;;;;;;;11.65;5.90;;;;;;;;;;5036347;28;20017;-92
2021/10/28 20:32:02;;;;;;;13.38;6.32;;;;;;;;;;5036098;28;20021;-92
2021/10/28 20:37:11;;;;;;;9.93;5.80;;;;;;;;;;5040326;28;20013;-93
2021/10/28 20:39:39;;;;;;;8.90;4.65;;;;;;;;;;5036020;28;20017;-93
2021/10/28 20:42:05;;;;;;;12.82;5.45;;;;;;;;;;5028275;28;20041;-93
2021/10/28 20:44:30;;;;;;;11.25;5.55;;;;;;;;;;5034015;28;20021;-92
2021/10/28 20:46:55;;;;;;;10.00;5.68;;;;;;;;;;5035927;28;20022;-92
2021/10/28 20:49:20;;;;;;;10.43;5.40;;;;;;;;;;5069105;28;20389;-93
2021/10/28 20:51:46;;;;;;;11.65;5.85;;;;;;;;;;5069233;28;20457;-92
2021/10/28 20:54:11;;;;;;;11.38;5.57;;;;;;;;;;5036819;28;20039;-93
2021/10/28 20:56:37;;;;;;;12.60;6.00;;;;;;;;;;5035566;28;20022;-93
2021/10/28 20:59:03;;;;;;;10.20;5.05;;;;;;;;;;5036131;28;20060;-93
2021/10/28 21:01:28;;;;;;;12.85;5.68;;;;;;;;;;5035681;28;20040;-93
2021/10/28 21:03:54;;;;;;;9.23;5.22;;;;;;;;;;5068999;28;20017;-92
2021/10/28 21:06:19;;;;;;;9.60;4.95;;;;;;;;;;5035535;28;20402;-93
2021/10/28 21:08:45;;;;;;;12.10;5.55;;;;;;;;;;5034330;28;20116;-92
2021/10/28 21:11:10;;;;;;;13.95;5.68;;;;;;;;;;5035335;28;20021;-92
2021/10/28 21:13:35;;;;;;;11.80;5.50;;;;;;;;;;5035475;28;20048;-93
2021/10/28 21:16:01;;;;;;;11.60;5.85;;;;;;;;;;5035613;28;20064;-92
2021/10/28 21:18:27;;;;;;;12.63;5.88;;;;;;;;;;5037098;28;20028;-92
2021/10/28 21:20:52;;;;;;;12.18;6.07;;;;;;;;;;5035289;28;20021;-92
2021/10/28 21:23:18;;;;;;;14.73;5.93;;;;;;;;;;5035268;28;20028;-92
2021/10/28 21:25:43;;;;;;;12.98;5.55;;;;;;;;;;5045932;28;20380;-93
2021/10/28 21:28:09;;;;;;;11.75;4.85;;;;;;;;;;5068431;28;20036;-93
2021/10/28 21:30:34;;;;;;;11.65;5.00;;;;;;;;;;5034828;28;20017;-92
2021/10/28 21:32:59;;;;;;;9.32;4.47;;;;;;;;;;5034885;28;20023;-93
2021/10/28 21:35:25;;;;;;;10.82;4.43;;;;;;;;;;5068247;28;20017;-93
2021/10/28 21:37:50;;;;;;;11.10;5.55;;;;;;;;;;5034752;28;20021;-93
2021/10/28 21:40:16;;;;;;;9.98;5.55;;;;;;;;;;5060795;28;20037;-92
2021/10/28 21:42:42;;;;;;;22.20;5.63;;;;;;;;;;5031988;28;20021;-93
2021/10/28 21:45:11;;;;;;;7.55;4.38;;;;;;;;;;5034977;28;20028;-93
2021/10/28 21:47:36;;;;;;;12.98;4.70;;;;;;;;;;5034577;28;20024;-93
2021/10/28 21:50:02;;;;;;;12.38;4.38;;;;;;;;;;5035241;28;20009;-93
2021/10/28 21:52:31;;;;;;;8.90;4.93;;;;;;;;;;5034776;28;20100;-93
2021/10/28 22:00:43;;;;;;;10.40;4.88;;;;;;;;;;5023573;28;20133;-93
2021/10/28 22:06:11;;;;;;;15.75;4.63;;;;;;;;;;5035911;28;20020;-92
2021/10/28 22:25:01;;;;;;;9.13;4.00;;;;;;;;;;5033727;28;20032;-92
2021/10/28 22:27:28;;;;;;;10.57;4.68;;;;;;;;;;5021865;28;20532;-93
2021/10/28 22:29:54;;;;;;;9.73;4.82;;;;;;;;;;5067326;28;20022;-92
2021/10/28 22:32:20;;;;;;;7.60;4.22;;;;;;;;;;5067279;28;20024;-93
2021/10/28 22:34:46;;;;;;;15.20;4.97;;;;;;;;;;5033936;28;20013;-92
2021/10/28 22:42:35;;;;;;;10.02;4.88;;;;;;;;;;5031447;28;20109;-92
2021/10/28 22:45:01;;;;;;;8.25;4.25;;;;;;;;;;5034737;28;20097;-93
2021/10/28 22:47:26;;;;;;;15.23;4.22;;;;;;;;;;5033658;28;20091;-93
2021/10/28 22:49:54;;;;;;;11.13;4.65;;;;;;;;;;5066985;28;20018;-93
2021/10/28 22:52:25;;;;;;;8.52;3.95;;;;;;;;;;5066956;28;20017;-93
2021/10/28 22:54:55;;;;;;;7.80;3.83;;;;;;;;;;5052616;28;20492;-93
2021/10/28 22:57:41;;;;;;;15.45;5.50;;;;;;;;;;5033570;28;20037;-93
2021/10/28 23:00:10;;;;;;;9.60;4.00;;;;;;;;;;5066868;28;20020;-93
2021/10/28 23:16:02;;;;;;;14.10;4.10;;;;;;;;;;5034553;28;20416;-93
2021/10/28 23:21:12;;;;;;;8.20;4.05;;;;;;;;;;5034476;28;20084;-92
2021/10/28 23:23:37;;;;;;;8.07;4.25;;;;;;;;;;5034633;28;20026;-92
2021/10/28 23:26:02;;;;;;;7.53;3.55;;;;;;;;;;5034430;28;20039;-93
2021/10/28 23:28:28;;;;;;;7.80;3.78;;;;;;;;;;5032962;28;20119;-93
2021/10/28 23:30:54;;;;;;;9.55;4.18;;;;;;;;;;5034190;28;20057;-93
2021/10/28 23:33:19;;;;;;;7.53;3.60;;;;;;;;;;5065709;28;20448;-93
2021/10/28 23:35:44;;;;;;;8.40;4.10;;;;;;;;;;5032851;28;20009;-92
2021/10/28 23:38:10;;;;;;;12.35;4.68;;;;;;;;;;5033043;28;20063;-91
2021/10/28 23:40:35;;;;;;;7.25;3.47;;;;;;;;;;5033605;28;20056;-92
2021/10/28 23:43:00;;;;;;;8.85;3.92;;;;;;;;;;5052148;28;20032;-93
2021/10/28 23:45:26;;;;;;;7.32;3.60;;;;;;;;;;5032993;28;20029;-93
2021/10/28 23:47:51;;;;;;;8.73;3.75;;;;;;;;;;5032806;28;20024;-93
2021/10/28 23:50:16;;;;;;;7.68;3.13;;;;;;;;;;5066336;28;20026;-93
2021/10/28 23:52:41;;;;;;;6.75;3.22;;;;;;;;;;5032891;28;20539;-93
2021/10/28 23:55:07;;;;;;;7.93;3.38;;;;;;;;;;5032988;28;20018;-93
2021/10/28 23:57:32;;;;;;;6.80;3.55;;;;;;;;;;5066038;28;20033;-93
2021/10/28 23:59:58;;;;;;;8.10;4.03;;;;;;;;;;5032880;28;20063;-94
